West Fargo, ND (58078)

9:12 PM CDT on April 20, 2015 (GMT -0500)
Charleswood Estates | | Change Station
CLOSE
Current Station
Personal Weather Station
Location: West Fargo, ND
Elevation: 899 ft
Nearby Weather Stations

Elev 899 ft 46.86 °N, 96.90 °W | Updated 14 minutes ago

Overcast
Overcast
37.6 °F
Feels Like 34 °F
N
4.7
Wind Variable Wind from North

Today
High -- | Low -- °F
--% Chance of Precip.
Yesterday
High -- | Low -- °F
Precip. -- in
6:31 AM 8:22 PM
Waxing Crescent, 7% visible
Pressure 29.67 in
Visibility 10.0 miles
Clouds Scattered Clouds 3600 ft
Overcast 4400 ft
Windchill 34 °F
Dew Point 34 °F
Humidity 87%
Rainfall 0.04 in
Snow Depth Not available.
UV 0 out of 12
Pollen 10.20 out of 12
Air Quality Not available.
Flu Activity Regional
METAR KFAR 210153Z 34013KT 10SM SCT036 OVC044 03/M01 A2964 RMK AO2 UPE02RAB02E03B15E24 SLP046 P0000 T00281006

More Conditions Fewer Conditions

Pressure 29.67 in
Visibility 10.0 miles
Clouds Scattered Clouds 3600 ft
Overcast 4400 ft
Windchill 34 °F
Dew Point 34 °F
Humidity 87%
Rainfall 0.04 in
Snow Depth Not available.
UV 0 out of 12
Pollen 10.20 out of 12
Air Quality Not available.
Flu Activity Regional
METAR KFAR 210153Z 34013KT 10SM SCT036 OVC044 03/M01 A2964 RMK AO2 UPE02RAB02E03B15E24 SLP046 P0000 T00281006

More Conditions Fewer Conditions

10-Day Weather Forecast

Almanac

Astronomy

Apr. 20, 2015 Rise Set
Actual Time
Civil Twilight
Nautical Twilight
Astronomical Twilight
Moon
Length of Visible Light
Length of Day
Tomorrow will be .
, % of the Moon is Illuminated

Today's Extremes

State Highs State Lows

Community

WunderPhotos

Upload Photos

1,815,278 photos uploaded!

WunderBlogs® & News

Nearby

Air Quality

  Air Quality AQ Index Pollutant
Not available.

Snow Depth

Station Depth Elevation

Earthquake Activity

City Distance Mag. Time & Date
Minimum magnitude displayed is 2.5.

Coastal Water Temperatures

Place Temperature

Stations

Nearby Weather Stations

Station Location Temp. Windchill Dew Point Humidity Wind Precip. Elev Updated Type